Terminal Aerodrome Forecast
Issued by NWS

Current Version | Previous Version | Text Only | Print | Product List | Glossary On
Versions: 1 2 3 4 5 6 7 8 9 10 11 12 13 14 15 16
000
FTUS46 KMTR 310520
TAFSJC
TAF
KSJC 310520Z 3106/0106 30017KT P6SM SKC
     FM310800 32005KT P6SM FEW015
     FM311600 15003KT P6SM FEW015
     FM311800 32012KT P6SM SKC
     FM010300 30009KT P6SM SKC=

USA.gov is the U.S. government's official web portal to all federal, state and local government web resources and services.